createdAt,value
2024-03-23T00:02:53.783Z,8.93
2024-03-23T00:07:59.553Z,8.94
2024-03-23T00:13:04.941Z,8.95
2024-03-23T00:18:09.204Z,8.96
2024-03-23T00:23:13.463Z,8.96
2024-03-23T00:28:17.852Z,8.97
2024-03-23T00:33:22.192Z,8.97
2024-03-23T00:38:26.899Z,8.98
2024-03-23T00:43:31.703Z,8.99
2024-03-23T00:48:36.298Z,9.01
2024-03-23T00:53:40.743Z,9.04
2024-03-23T00:58:45.243Z,9.04
2024-03-23T01:03:49.560Z,9.03
2024-03-23T01:08:53.854Z,9.03
2024-03-23T01:13:58.578Z,9.03
2024-03-23T01:19:03.337Z,9.03
2024-03-23T01:24:09.788Z,9.02
2024-03-23T01:29:14.644Z,9.02
2024-03-23T01:34:20.216Z,9.00
2024-03-23T01:39:24.665Z,8.99
2024-03-23T01:44:29.120Z,8.98
2024-03-23T01:49:33.508Z,8.98
2024-03-23T01:54:36.835Z,8.97
2024-03-23T01:59:41.213Z,8.95
2024-03-23T02:04:46.492Z,8.92
2024-03-23T02:09:51.282Z,8.89
2024-03-23T02:14:56.139Z,8.85
2024-03-23T02:20:00.996Z,8.82
2024-03-23T02:25:06.137Z,8.78
2024-03-23T02:30:11.375Z,8.75
2024-03-23T02:35:16.023Z,8.71
2024-03-23T02:40:21.507Z,8.68
2024-03-23T02:45:26.001Z,8.62
2024-03-23T02:50:30.557Z,8.58
2024-03-23T02:55:34.960Z,8.54
2024-03-23T03:06:31.766Z,8.43
2024-03-23T03:11:36.266Z,8.40
2024-03-23T03:16:40.848Z,8.35
2024-03-23T03:21:45.209Z,8.32
2024-03-23T03:26:50.528Z,8.29
2024-03-23T03:31:54.926Z,8.26
2024-03-23T03:36:59.840Z,8.21
2024-03-23T03:42:07.436Z,8.16
2024-03-23T03:47:11.987Z,8.14
2024-03-23T03:52:16.238Z,8.13
2024-03-23T03:57:20.664Z,8.10
2024-03-23T04:02:25.047Z,8.09
2024-03-23T04:07:29.428Z,8.08
2024-03-23T04:12:33.822Z,8.04
2024-03-23T04:17:38.576Z,8.01
2024-03-23T04:22:43.037Z,7.99
2024-03-23T04:27:47.396Z,7.98
2024-03-23T04:32:51.977Z,7.98
2024-03-23T04:37:59.464Z,7.96
2024-03-23T04:43:05.438Z,7.93
2024-03-23T04:48:10.943Z,7.91
2024-03-23T04:53:16.596Z,7.88
2024-03-23T04:58:21.029Z,7.87
2024-03-23T05:03:25.395Z,7.86
2024-03-23T05:08:31.121Z,7.85
2024-03-23T05:13:35.363Z,7.84
2024-03-23T05:18:39.832Z,7.83
2024-03-23T05:23:44.805Z,7.81
2024-03-23T05:28:49.105Z,7.80
2024-03-23T05:33:53.678Z,7.79
2024-03-23T05:38:57.954Z,7.81
2024-03-23T05:44:02.319Z,7.83
2024-03-23T05:49:06.646Z,7.84
2024-03-23T05:54:10.100Z,7.85
2024-03-23T05:59:14.539Z,7.82
2024-03-23T06:04:19.202Z,7.90
2024-03-23T06:09:23.474Z,7.93
2024-03-23T06:14:27.772Z,7.95
2024-03-23T06:19:32.410Z,7.96
2024-03-23T06:24:36.771Z,7.98
2024-03-23T06:29:41.036Z,8.00
2024-03-23T06:34:45.611Z,8.03
2024-03-23T06:39:49.912Z,8.04
2024-03-23T06:44:54.328Z,8.07
2024-03-23T06:49:58.614Z,8.10
2024-03-23T06:55:05.266Z,8.16
2024-03-23T07:00:10.918Z,8.20
2024-03-23T07:05:15.970Z,8.25
2024-03-23T07:10:20.587Z,8.29
2024-03-23T07:15:24.961Z,8.34
2024-03-23T07:20:31.414Z,8.39
2024-03-23T07:25:35.902Z,8.46
2024-03-23T07:30:40.466Z,8.54
2024-03-23T07:35:45.181Z,8.63
2024-03-23T07:40:50.801Z,8.72
2024-03-23T07:45:55.169Z,8.78
2024-03-23T07:51:00.778Z,8.85
2024-03-23T07:56:07.006Z,8.94
2024-03-23T08:01:11.687Z,9.01
2024-03-23T08:06:16.712Z,9.08
2024-03-23T08:11:20.938Z,9.13
2024-03-23T08:16:25.687Z,9.20
2024-03-23T08:21:30.176Z,9.28
2024-03-23T08:26:33.811Z,9.38
2024-03-23T08:31:38.904Z,9.48
2024-03-23T08:36:43.748Z,9.58
2024-03-23T08:41:48.097Z,9.67
2024-03-23T08:46:52.827Z,9.76
2024-03-23T08:51:57.212Z,9.82
2024-03-23T08:57:01.522Z,9.87
2024-03-23T09:02:06.037Z,9.91
2024-03-23T09:07:10.846Z,9.92
2024-03-23T09:12:15.638Z,9.92
2024-03-23T09:17:20.153Z,9.92
2024-03-23T09:22:25.310Z,9.91
2024-03-23T09:27:29.695Z,9.90
2024-03-23T09:32:33.944Z,9.90
2024-03-23T09:37:38.473Z,9.90
2024-03-23T09:42:47.947Z,9.89
2024-03-23T09:47:52.410Z,9.91
2024-03-23T09:52:56.578Z,9.95
2024-03-23T09:58:01.471Z,10.00
2024-03-23T10:03:08.903Z,10.06
2024-03-23T10:08:22.333Z,10.10
2024-03-23T10:13:30.191Z,10.11
2024-03-23T10:18:39.607Z,10.10
2024-03-23T10:23:45.081Z,10.10
2024-03-23T10:28:55.797Z,10.09
2024-03-23T10:34:01.792Z,10.09
2024-03-23T10:39:08.891Z,10.08
2024-03-23T10:44:13.705Z,10.08
2024-03-23T10:49:17.998Z,10.07
2024-03-23T10:54:23.054Z,10.05
2024-03-23T10:59:27.981Z,10.03
2024-03-23T11:04:36.118Z,9.99
2024-03-23T11:09:46.054Z,9.94
2024-03-23T11:14:51.188Z,9.91
2024-03-23T11:19:59.619Z,9.87
2024-03-23T11:25:04.437Z,9.83
2024-03-23T11:30:16.799Z,9.80
2024-03-23T11:35:31.904Z,9.76
2024-03-23T11:40:37.831Z,9.73
2024-03-23T11:45:42.666Z,9.71
2024-03-23T11:50:47.544Z,9.69
2024-03-23T11:55:52.904Z,9.66
2024-03-23T12:00:59.148Z,9.63
2024-03-23T12:06:04.835Z,9.62
2024-03-23T12:11:10.596Z,9.59
2024-03-23T12:16:15.572Z,9.55
2024-03-23T12:21:20.514Z,9.50
2024-03-23T12:26:25.209Z,9.48
2024-03-23T12:31:29.514Z,9.44
2024-03-23T12:36:33.890Z,9.41
2024-03-23T12:41:38.673Z,9.37
2024-03-23T12:46:43.409Z,9.33
2024-03-23T12:51:50.257Z,9.29
2024-03-23T12:56:54.356Z,9.26
2024-03-23T13:01:59.122Z,9.23
2024-03-23T13:07:03.277Z,9.20
2024-03-23T13:12:08.528Z,9.17
2024-03-23T13:17:13.360Z,9.15
2024-03-23T13:22:17.084Z,9.13
2024-03-23T13:27:21.799Z,9.10
2024-03-23T13:32:26.510Z,9.08
2024-03-23T13:37:30.833Z,9.05
2024-03-23T13:42:34.662Z,9.02
2024-03-23T13:47:39.446Z,8.98
2024-03-23T13:52:43.596Z,8.94
2024-03-23T13:57:47.883Z,8.91
2024-03-23T14:02:52.640Z,8.86
2024-03-23T14:07:56.907Z,8.82
2024-03-23T14:13:01.273Z,8.76
2024-03-23T14:18:05.744Z,8.69
2024-03-23T14:23:10.097Z,8.60
2024-03-23T14:28:17.204Z,8.50
2024-03-23T14:33:21.595Z,8.44
2024-03-23T14:38:26.106Z,8.38
2024-03-23T14:43:30.614Z,8.32
2024-03-23T14:48:35.639Z,8.26
2024-03-23T14:53:41.090Z,8.22
2024-03-23T14:58:46.603Z,8.19
2024-03-23T15:03:54.244Z,8.18
2024-03-23T15:08:58.448Z,8.14
2024-03-23T15:14:02.742Z,8.07
2024-03-23T15:19:07.505Z,7.99
2024-03-23T15:24:12.695Z,7.91
2024-03-23T15:29:18.091Z,7.83
2024-03-23T15:34:23.064Z,7.73
2024-03-23T15:39:30.585Z,7.64
2024-03-23T15:44:35.942Z,7.58
2024-03-23T15:49:40.201Z,7.51
2024-03-23T15:54:46.798Z,7.44
2024-03-23T15:59:51.469Z,7.36
2024-03-23T16:04:55.885Z,7.28
2024-03-23T16:10:06.442Z,7.19
2024-03-23T16:15:11.626Z,7.11
2024-03-23T16:20:16.001Z,7.05
2024-03-23T16:25:20.260Z,6.99
2024-03-23T16:30:24.768Z,6.93
2024-03-23T16:35:29.007Z,6.88
2024-03-23T16:40:33.447Z,6.85
2024-03-23T16:45:37.904Z,6.79
2024-03-23T16:50:43.213Z,6.76
2024-03-23T16:55:47.551Z,6.71
2024-03-23T17:00:53.759Z,6.65
2024-03-23T17:05:58.044Z,6.62
2024-03-23T17:11:02.493Z,6.57
2024-03-23T17:16:08.059Z,6.54
2024-03-23T17:21:12.229Z,6.49
2024-03-23T17:26:20.796Z,6.42
2024-03-23T17:31:25.413Z,6.34
2024-03-23T17:36:30.944Z,6.25
2024-03-23T17:41:35.599Z,6.13
2024-03-23T17:46:40.411Z,6.01
2024-03-23T17:51:45.670Z,5.89
2024-03-23T17:56:50.104Z,5.78
2024-03-23T18:01:54.943Z,5.66
2024-03-23T18:06:59.201Z,5.56
2024-03-23T18:12:03.480Z,5.47
2024-03-23T18:17:08.251Z,5.37
2024-03-23T18:22:12.843Z,5.28
2024-03-23T18:27:17.564Z,5.21
2024-03-23T18:32:22.712Z,5.12
2024-03-23T18:37:27.489Z,5.04
2024-03-23T18:42:33.846Z,4.97
2024-03-23T18:47:39.699Z,4.82
2024-03-23T18:52:43.961Z,4.83
2024-03-23T18:57:48.735Z,4.78
2024-03-23T19:02:53.040Z,4.66
2024-03-23T19:07:58.423Z,4.69
2024-03-23T19:13:03.550Z,4.64
2024-03-23T19:18:07.783Z,4.60
2024-03-23T19:23:11.968Z,4.57
2024-03-23T19:28:16.664Z,4.52
2024-03-23T19:33:22.079Z,4.50
2024-03-23T19:38:26.775Z,4.47
2024-03-23T19:43:31.904Z,4.43
2024-03-23T19:48:36.594Z,4.40
2024-03-23T19:53:41.290Z,4.39
2024-03-23T19:58:45.146Z,4.35
2024-03-23T20:03:50.100Z,4.34
2024-03-23T20:08:54.948Z,4.33
2024-03-23T20:13:59.369Z,4.35
2024-03-23T20:19:03.648Z,4.37
2024-03-23T20:24:08.540Z,4.40
2024-03-23T20:29:14.277Z,4.41
2024-03-23T20:34:19.659Z,4.44
2024-03-23T20:39:24.277Z,4.45
2024-03-23T20:44:28.675Z,4.44
2024-03-23T20:49:32.998Z,4.40
2024-03-23T20:54:37.408Z,4.37
2024-03-23T20:59:42.388Z,4.36
2024-03-23T21:04:47.263Z,4.36
2024-03-23T21:09:51.987Z,4.34
2024-03-23T21:14:56.835Z,4.31
2024-03-23T21:20:01.264Z,4.28
2024-03-23T21:25:06.835Z,4.26
2024-03-23T21:30:12.117Z,4.23
2024-03-23T21:35:17.491Z,4.21
2024-03-23T21:40:21.295Z,4.20
2024-03-23T21:45:25.695Z,4.19
2024-03-23T21:50:31.330Z,4.19
2024-03-23T21:55:35.913Z,4.19
2024-03-23T22:00:40.308Z,4.19
2024-03-23T22:05:44.809Z,4.18
2024-03-23T22:10:49.495Z,4.16
2024-03-23T22:16:00.030Z,4.16
2024-03-23T22:21:05.288Z,4.09
2024-03-23T22:26:09.798Z,4.14
2024-03-23T22:31:14.470Z,4.14
2024-03-23T22:36:18.970Z,4.15
2024-03-23T22:41:23.547Z,4.16
2024-03-23T22:46:28.038Z,4.16
2024-03-23T22:51:32.905Z,4.14
2024-03-23T22:56:37.964Z,4.12
2024-03-23T23:01:42.766Z,4.10
2024-03-23T23:06:47.603Z,4.08
2024-03-23T23:11:52.406Z,4.04
2024-03-23T23:16:57.350Z,4.01
2024-03-23T23:22:01.204Z,3.98
2024-03-23T23:27:06.190Z,3.97
2024-03-23T23:32:10.587Z,3.95
2024-03-23T23:37:15.939Z,3.94
2024-03-23T23:42:20.258Z,3.92
2024-03-23T23:47:24.909Z,3.90
2024-03-23T23:52:30.458Z,3.89
2024-03-23T23:57:35.231Z,3.88
